sensor_id;sensor_type;location;lat;lon;timestamp;pressure;altitude;pressure_sealevel;temperature;humidity
41830;BME280;38614;43.472;23.936;2023-04-28T00:00:38;100518.66;;;6.22;100.00
41830;BME280;38614;43.472;23.936;2023-04-28T00:03:26;100538.06;;;6.26;100.00
41830;BME280;38614;43.472;23.936;2023-04-28T00:06:14;100522.50;;;6.13;100.00
41830;BME280;38614;43.472;23.936;2023-04-28T00:09:02;100522.97;;;5.97;100.00
41830;BME280;38614;43.472;23.936;2023-04-28T00:11:50;100537.50;;;5.98;100.00
41830;BME280;38614;43.472;23.936;2023-04-28T00:14:38;100557.53;;;6.07;100.00
41830;BME280;38614;43.472;23.936;2023-04-28T00:17:27;100557.88;;;6.14;100.00
41830;BME280;38614;43.472;23.936;2023-04-28T00:20:15;100564.78;;;6.03;100.00
41830;BME280;38614;43.472;23.936;2023-04-28T00:23:02;100543.22;;;5.79;100.00
41830;BME280;38614;43.472;23.936;2023-04-28T00:25:51;100571.63;;;5.83;100.00
41830;BME280;38614;43.472;23.936;2023-04-28T00:28:39;100565.44;;;5.69;100.00
41830;BME280;38614;43.472;23.936;2023-04-28T00:31:27;100573.09;;;5.89;100.00
41830;BME280;38614;43.472;23.936;2023-04-28T00:34:15;100544.88;;;5.58;100.00
41830;BME280;38614;43.472;23.936;2023-04-28T00:37:03;100579.88;;;5.52;100.00
41830;BME280;38614;43.472;23.936;2023-04-28T00:39:55;100558.34;;;5.37;100.00
41830;BME280;38614;43.472;23.936;2023-04-28T00:42:43;100579.34;;;5.41;100.00
41830;BME280;38614;43.472;23.936;2023-04-28T00:45:31;100591.28;;;5.46;100.00
41830;BME280;38614;43.472;23.936;2023-04-28T00:48:19;100578.00;;;5.39;100.00
41830;BME280;38614;43.472;23.936;2023-04-28T00:51:06;100581.13;;;5.46;100.00
41830;BME280;38614;43.472;23.936;2023-04-28T00:53:55;100579.81;;;5.43;100.00
41830;BME280;38614;43.472;23.936;2023-04-28T00:56:44;100569.50;;;5.40;100.00
41830;BME280;38614;43.472;23.936;2023-04-28T00:59:31;100580.25;;;5.37;100.00
41830;BME280;38614;43.472;23.936;2023-04-28T01:02:19;100577.66;;;5.32;100.00
41830;BME280;38614;43.472;23.936;2023-04-28T01:05:08;100557.31;;;5.24;100.00
41830;BME280;38614;43.472;23.936;2023-04-28T01:07:57;100576.53;;;5.33;100.00
41830;BME280;38614;43.472;23.936;2023-04-28T01:10:44;100579.34;;;5.41;100.00
41830;BME280;38614;43.472;23.936;2023-04-28T01:13:46;100582.63;;;5.52;100.00
41830;BME280;38614;43.472;23.936;2023-04-28T01:16:34;100579.69;;;5.49;100.00
41830;BME280;38614;43.472;23.936;2023-04-28T01:19:25;100581.56;;;5.39;100.00
41830;BME280;38614;43.472;23.936;2023-04-28T01:22:14;100578.16;;;5.34;100.00
41830;BME280;38614;43.472;23.936;2023-04-28T01:25:03;100568.69;;;5.18;100.00
41830;BME280;38614;43.472;23.936;2023-04-28T01:27:52;100574.88;;;5.23;100.00
41830;BME280;38614;43.472;23.936;2023-04-28T01:30:40;100571.38;;;5.09;100.00
41830;BME280;38614;43.472;23.936;2023-04-28T01:33:27;100573.94;;;5.05;100.00
41830;BME280;38614;43.472;23.936;2023-04-28T01:36:15;100581.47;;;5.00;100.00
41830;BME280;38614;43.472;23.936;2023-04-28T01:39:04;100575.59;;;4.93;100.00
41830;BME280;38614;43.472;23.936;2023-04-28T01:41:52;100583.25;;;4.82;100.00
41830;BME280;38614;43.472;23.936;2023-04-28T01:44:39;100593.66;;;4.71;100.00
41830;BME280;38614;43.472;23.936;2023-04-28T01:47:30;100587.59;;;4.61;100.00
41830;BME280;38614;43.472;23.936;2023-04-28T01:50:18;100563.59;;;4.57;100.00
41830;BME280;38614;43.472;23.936;2023-04-28T01:53:06;100576.81;;;4.64;100.00
41830;BME280;38614;43.472;23.936;2023-04-28T01:55:53;100585.81;;;4.56;100.00
41830;BME280;38614;43.472;23.936;2023-04-28T01:58:41;100583.66;;;4.53;100.00
41830;BME280;38614;43.472;23.936;2023-04-28T02:01:30;100575.69;;;4.43;100.00
41830;BME280;38614;43.472;23.936;2023-04-28T02:04:21;100558.84;;;4.36;100.00
41830;BME280;38614;43.472;23.936;2023-04-28T02:07:13;100593.69;;;4.57;100.00
41830;BME280;38614;43.472;23.936;2023-04-28T02:10:03;100573.44;;;4.45;100.00
41830;BME280;38614;43.472;23.936;2023-04-28T02:12:52;100604.44;;;4.54;100.00
41830;BME280;38614;43.472;23.936;2023-04-28T02:15:41;100601.69;;;4.54;100.00
41830;BME280;38614;43.472;23.936;2023-04-28T02:18:29;100577.28;;;4.44;100.00
41830;BME280;38614;43.472;23.936;2023-04-28T02:21:19;100608.03;;;4.77;100.00
41830;BME280;38614;43.472;23.936;2023-04-28T02:24:07;100611.03;;;4.89;100.00
41830;BME280;38614;43.472;23.936;2023-04-28T02:26:55;100561.66;;;4.58;100.00
41830;BME280;38614;43.472;23.936;2023-04-28T02:29:46;100615.00;;;4.83;100.00
41830;BME280;38614;43.472;23.936;2023-04-28T02:32:34;100621.13;;;5.02;100.00
41830;BME280;38614;43.472;23.936;2023-04-28T02:35:22;100622.63;;;4.86;100.00
41830;BME280;38614;43.472;23.936;2023-04-28T02:38:10;100624.22;;;4.87;100.00
41830;BME280;38614;43.472;23.936;2023-04-28T02:41:04;100632.53;;;4.82;100.00
41830;BME280;38614;43.472;23.936;2023-04-28T02:43:52;100633.88;;;4.84;100.00
41830;BME280;38614;43.472;23.936;2023-04-28T02:46:41;100639.53;;;4.88;100.00
41830;BME280;38614;43.472;23.936;2023-04-28T02:49:29;100625.38;;;4.72;100.00
41830;BME280;38614;43.472;23.936;2023-04-28T02:52:20;100643.13;;;4.75;100.00
41830;BME280;38614;43.472;23.936;2023-04-28T02:55:08;100642.75;;;4.68;100.00
41830;BME280;38614;43.472;23.936;2023-04-28T02:57:55;100634.44;;;4.59;100.00
41830;BME280;38614;43.472;23.936;2023-04-28T03:00:43;100651.84;;;4.63;100.00
41830;BME280;38614;43.472;23.936;2023-04-28T03:03:32;100645.66;;;4.71;100.00
41830;BME280;38614;43.472;23.936;2023-04-28T03:06:21;100618.44;;;4.52;100.00
41830;BME280;38614;43.472;23.936;2023-04-28T03:09:09;100656.97;;;4.56;100.00
41830;BME280;38614;43.472;23.936;2023-04-28T03:12:03;100671.63;;;4.60;100.00
41830;BME280;38614;43.472;23.936;2023-04-28T03:14:52;100649.34;;;4.67;100.00
41830;BME280;38614;43.472;23.936;2023-04-28T03:17:40;100667.47;;;4.63;100.00
41830;BME280;38614;43.472;23.936;2023-04-28T03:20:29;100642.47;;;4.42;100.00
41830;BME280;38614;43.472;23.936;2023-04-28T03:23:20;100672.53;;;4.55;100.00
41830;BME280;38614;43.472;23.936;2023-04-28T03:26:11;100635.25;;;4.46;100.00
41830;BME280;38614;43.472;23.936;2023-04-28T03:28:59;100606.03;;;4.19;100.00
41830;BME280;38614;43.472;23.936;2023-04-28T03:31:47;100660.56;;;4.65;100.00
41830;BME280;38614;43.472;23.936;2023-04-28T03:34:35;100646.69;;;4.62;100.00
41830;BME280;38614;43.472;23.936;2023-04-28T03:37:23;100686.81;;;4.94;100.00
41830;BME280;38614;43.472;23.936;2023-04-28T03:40:11;100679.19;;;4.91;100.00
41830;BME280;38614;43.472;23.936;2023-04-28T03:43:40;100689.16;;;4.86;100.00
41830;BME280;38614;43.472;23.936;2023-04-28T03:46:48;100700.34;;;5.12;100.00
41830;BME280;38614;43.472;23.936;2023-04-28T03:49:39;100693.91;;;5.17;100.00
41830;BME280;38614;43.472;23.936;2023-04-28T03:52:26;100699.63;;;5.07;100.00
41830;BME280;38614;43.472;23.936;2023-04-28T03:55:14;100713.97;;;5.04;100.00
41830;BME280;38614;43.472;23.936;2023-04-28T03:58:03;100723.97;;;5.08;100.00
41830;BME280;38614;43.472;23.936;2023-04-28T04:00:50;100722.91;;;5.32;100.00
41830;BME280;38614;43.472;23.936;2023-04-28T04:03:39;100718.84;;;5.29;100.00
41830;BME280;38614;43.472;23.936;2023-04-28T04:06:31;100723.50;;;5.29;100.00
41830;BME280;38614;43.472;23.936;2023-04-28T04:09:19;100725.56;;;5.23;100.00
41830;BME280;38614;43.472;23.936;2023-04-28T04:12:06;100697.63;;;4.99;100.00
41830;BME280;38614;43.472;23.936;2023-04-28T04:14:54;100740.69;;;5.21;100.00
41830;BME280;38614;43.472;23.936;2023-04-28T04:17:42;100743.41;;;5.21;100.00
41830;BME280;38614;43.472;23.936;2023-04-28T04:20:30;100741.78;;;5.33;100.00
41830;BME280;38614;43.472;23.936;2023-04-28T04:23:18;100732.91;;;5.14;100.00
41830;BME280;38614;43.472;23.936;2023-04-28T04:26:06;100743.41;;;5.21;100.00
41830;BME280;38614;43.472;23.936;2023-04-28T04:28:54;100739.78;;;5.25;100.00
41830;BME280;38614;43.472;23.936;2023-04-28T04:31:42;100746.88;;;5.26;100.00
41830;BME280;38614;43.472;23.936;2023-04-28T04:34:32;100754.00;;;5.50;100.00
41830;BME280;38614;43.472;23.936;2023-04-28T04:37:21;100755.94;;;5.49;100.00
41830;BME280;38614;43.472;23.936;2023-04-28T04:40:21;100744.66;;;5.51;100.00
41830;BME280;38614;43.472;23.936;2023-04-28T04:43:09;100739.25;;;5.59;100.00
41830;BME280;38614;43.472;23.936;2023-04-28T04:46:04;100765.69;;;5.78;100.00
41830;BME280;38614;43.472;23.936;2023-04-28T04:48:52;100727.97;;;5.61;100.00
41830;BME280;38614;43.472;23.936;2023-04-28T04:51:39;100714.44;;;5.64;100.00
41830;BME280;38614;43.472;23.936;2023-04-28T04:54:28;100754.78;;;6.09;100.00
41830;BME280;38614;43.472;23.936;2023-04-28T04:57:17;100737.13;;;6.32;100.00
41830;BME280;38614;43.472;23.936;2023-04-28T05:00:24;100737.09;;;6.63;100.00
41830;BME280;38614;43.472;23.936;2023-04-28T05:03:12;100755.94;;;7.04;100.00
41830;BME280;38614;43.472;23.936;2023-04-28T05:06:01;100728.16;;;7.14;100.00
41830;BME280;38614;43.472;23.936;2023-04-28T05:08:59;100756.00;;;7.74;100.00
41830;BME280;38614;43.472;23.936;2023-04-28T05:11:47;100757.94;;;7.82;100.00
41830;BME280;38614;43.472;23.936;2023-04-28T05:14:35;100765.66;;;7.80;100.00
41830;BME280;38614;43.472;23.936;2023-04-28T05:17:23;100771.47;;;8.04;100.00
41830;BME280;38614;43.472;23.936;2023-04-28T05:20:11;100774.00;;;8.44;100.00
41830;BME280;38614;43.472;23.936;2023-04-28T05:22:59;100760.69;;;8.46;100.00
41830;BME280;38614;43.472;23.936;2023-04-28T05:25:47;100715.81;;;8.45;100.00
41830;BME280;38614;43.472;23.936;2023-04-28T05:28:35;100769.44;;;9.16;100.00
41830;BME280;38614;43.472;23.936;2023-04-28T05:31:22;100750.94;;;8.57;100.00
41830;BME280;38614;43.472;23.936;2023-04-28T05:34:12;100771.69;;;8.84;100.00
41830;BME280;38614;43.472;23.936;2023-04-28T05:37:00;100773.84;;;9.08;100.00
41830;BME280;38614;43.472;23.936;2023-04-28T05:39:49;100788.34;;;9.26;100.00
41830;BME280;38614;43.472;23.936;2023-04-28T05:42:37;100769.44;;;9.57;100.00
41830;BME280;38614;43.472;23.936;2023-04-28T05:45:25;100754.22;;;9.30;100.00
41830;BME280;38614;43.472;23.936;2023-04-28T05:48:13;100776.63;;;9.29;100.00
41830;BME280;38614;43.472;23.936;2023-04-28T05:51:03;100783.09;;;9.75;100.00
41830;BME280;38614;43.472;23.936;2023-04-28T05:53:51;100751.56;;;9.96;100.00
41830;BME280;38614;43.472;23.936;2023-04-28T05:56:39;100766.50;;;9.95;100.00
41830;BME280;38614;43.472;23.936;2023-04-28T05:59:28;100775.34;;;10.22;100.00
41830;BME280;38614;43.472;23.936;2023-04-28T06:02:17;100743.88;;;10.60;100.00
41830;BME280;38614;43.472;23.936;2023-04-28T06:05:08;100770.06;;;11.51;100.00
41830;BME280;38614;43.472;23.936;2023-04-28T06:07:58;100776.13;;;11.17;100.00
41830;BME280;38614;43.472;23.936;2023-04-28T06:10:45;100781.03;;;11.48;100.00
41830;BME280;38614;43.472;23.936;2023-04-28T06:13:33;100780.41;;;11.66;100.00
41830;BME280;38614;43.472;23.936;2023-04-28T06:16:22;100781.03;;;11.88;100.00
41830;BME280;38614;43.472;23.936;2023-04-28T06:19:10;100771.50;;;11.73;100.00
41830;BME280;38614;43.472;23.936;2023-04-28T06:22:00;100780.25;;;11.75;100.00
41830;BME280;38614;43.472;23.936;2023-04-28T06:24:50;100776.88;;;11.94;100.00
41830;BME280;38614;43.472;23.936;2023-04-28T06:27:43;100778.41;;;12.51;100.00
41830;BME280;38614;43.472;23.936;2023-04-28T06:30:31;100774.88;;;12.22;100.00
41830;BME280;38614;43.472;23.936;2023-04-28T06:33:22;100782.63;;;12.01;100.00
41830;BME280;38614;43.472;23.936;2023-04-28T06:36:10;100781.56;;;11.65;100.00
41830;BME280;38614;43.472;23.936;2023-04-28T06:39:00;100792.91;;;12.60;100.00
41830;BME280;38614;43.472;23.936;2023-04-28T06:41:48;100773.81;;;12.90;100.00
41830;BME280;38614;43.472;23.936;2023-04-28T06:44:36;100790.94;;;12.76;100.00
41830;BME280;38614;43.472;23.936;2023-04-28T06:47:24;100751.28;;;12.44;100.00
41830;BME280;38614;43.472;23.936;2023-04-28T06:50:12;100766.13;;;12.83;100.00
41830;BME280;38614;43.472;23.936;2023-04-28T06:53:00;100760.19;;;13.17;100.00
41830;BME280;38614;43.472;23.936;2023-04-28T06:55:48;100761.13;;;12.73;100.00
41830;BME280;38614;43.472;23.936;2023-04-28T06:58:36;100789.13;;;13.31;100.00
41830;BME280;38614;43.472;23.936;2023-04-28T07:01:24;100784.69;;;13.30;100.00
41830;BME280;38614;43.472;23.936;2023-04-28T07:04:12;100777.88;;;13.44;100.00
41830;BME280;38614;43.472;23.936;2023-04-28T07:07:00;100789.97;;;13.71;100.00
41830;BME280;38614;43.472;23.936;2023-04-28T07:09:48;100796.91;;;14.61;100.00
41830;BME280;38614;43.472;23.936;2023-04-28T07:12:35;100792.59;;;14.44;100.00
41830;BME280;38614;43.472;23.936;2023-04-28T07:15:23;100797.41;;;14.24;100.00
41830;BME280;38614;43.472;23.936;2023-04-28T07:18:11;100793.69;;;14.17;100.00
41830;BME280;38614;43.472;23.936;2023-04-28T07:20:59;100799.25;;;14.59;100.00
41830;BME280;38614;43.472;23.936;2023-04-28T07:23:48;100762.75;;;14.87;100.00
41830;BME280;38614;43.472;23.936;2023-04-28T07:26:36;100768.31;;;14.41;100.00
41830;BME280;38614;43.472;23.936;2023-04-28T07:29:24;100789.47;;;14.92;100.00
41830;BME280;38614;43.472;23.936;2023-04-28T07:32:15;100793.88;;;15.19;100.00
41830;BME280;38614;43.472;23.936;2023-04-28T07:35:03;100773.34;;;14.55;100.00
41830;BME280;38614;43.472;23.936;2023-04-28T07:37:51;100789.03;;;14.67;100.00
41830;BME280;38614;43.472;23.936;2023-04-28T07:40:41;100792.16;;;14.42;100.00
41830;BME280;38614;43.472;23.936;2023-04-28T07:43:29;100790.97;;;14.86;100.00
41830;BME280;38614;43.472;23.936;2023-04-28T07:46:17;100788.19;;;15.65;100.00
41830;BME280;38614;43.472;23.936;2023-04-28T07:49:05;100786.91;;;15.32;100.00
41830;BME280;38614;43.472;23.936;2023-04-28T07:51:54;100786.09;;;15.32;100.00
41830;BME280;38614;43.472;23.936;2023-04-28T07:54:42;100763.44;;;16.27;100.00
41830;BME280;38614;43.472;23.936;2023-04-28T07:57:30;100775.94;;;16.03;98.99
41830;BME280;38614;43.472;23.936;2023-04-28T08:00:18;100770.94;;;16.64;100.00
41830;BME280;38614;43.472;23.936;2023-04-28T08:03:05;100772.91;;;16.60;100.00
41830;BME280;38614;43.472;23.936;2023-04-28T08:05:54;100780.13;;;16.23;100.00
41830;BME280;38614;43.472;23.936;2023-04-28T08:08:44;100781.75;;;16.28;100.00
41830;BME280;38614;43.472;23.936;2023-04-28T08:11:33;100777.84;;;16.36;100.00
41830;BME280;38614;43.472;23.936;2023-04-28T08:14:21;100769.06;;;16.31;98.17
41830;BME280;38614;43.472;23.936;2023-04-28T08:17:09;100770.03;;;16.93;98.04
41830;BME280;38614;43.472;23.936;2023-04-28T08:19:56;100757.44;;;17.14;98.68
41830;BME280;38614;43.472;23.936;2023-04-28T08:22:45;100781.09;;;16.83;100.00
41830;BME280;38614;43.472;23.936;2023-04-28T08:25:33;100766.53;;;16.59;99.46
41830;BME280;38614;43.472;23.936;2023-04-28T08:28:20;100772.59;;;16.28;98.47
41830;BME280;38614;43.472;23.936;2023-04-28T08:31:08;100768.66;;;16.29;98.13
41830;BME280;38614;43.472;23.936;2023-04-28T08:33:56;100764.19;;;16.20;97.76
41830;BME280;38614;43.472;23.936;2023-04-28T08:36:44;100769.53;;;16.40;100.00
41830;BME280;38614;43.472;23.936;2023-04-28T08:39:31;100760.03;;;16.89;97.67
41830;BME280;38614;43.472;23.936;2023-04-28T08:42:20;100744.22;;;17.07;91.73
41830;BME280;38614;43.472;23.936;2023-04-28T08:45:12;100752.88;;;16.91;97.62
41830;BME280;38614;43.472;23.936;2023-04-28T08:48:02;100749.16;;;17.35;97.03
41830;BME280;38614;43.472;23.936;2023-04-28T08:50:52;100703.47;;;17.75;99.49
41830;BME280;38614;43.472;23.936;2023-04-28T08:53:44;100729.97;;;18.49;90.04
41830;BME280;38614;43.472;23.936;2023-04-28T08:56:41;100750.41;;;18.74;88.83
41830;BME280;38614;43.472;23.936;2023-04-28T08:59:31;100743.22;;;18.91;90.57
41830;BME280;38614;43.472;23.936;2023-04-28T09:02:19;100742.84;;;18.71;88.19
41830;BME280;38614;43.472;23.936;2023-04-28T09:05:08;100745.59;;;19.03;85.73
41830;BME280;38614;43.472;23.936;2023-04-28T09:07:57;100735.19;;;18.36;87.39
41830;BME280;38614;43.472;23.936;2023-04-28T09:10:44;100737.97;;;18.61;86.50
41830;BME280;38614;43.472;23.936;2023-04-28T09:13:32;100725.19;;;19.03;90.03
41830;BME280;38614;43.472;23.936;2023-04-28T09:16:21;100735.75;;;17.65;83.52
41830;BME280;38614;43.472;23.936;2023-04-28T09:19:09;100734.66;;;17.81;85.55
41830;BME280;38614;43.472;23.936;2023-04-28T09:21:56;100721.16;;;18.33;83.66
41830;BME280;38614;43.472;23.936;2023-04-28T09:24:44;100727.16;;;18.17;79.70
41830;BME280;38614;43.472;23.936;2023-04-28T09:27:33;100725.88;;;17.09;83.56
41830;BME280;38614;43.472;23.936;2023-04-28T09:30:37;100728.78;;;16.72;85.72
41830;BME280;38614;43.472;23.936;2023-04-28T09:33:25;100724.47;;;16.38;87.29
41830;BME280;38614;43.472;23.936;2023-04-28T09:36:25;100704.34;;;17.97;89.72
41830;BME280;38614;43.472;23.936;2023-04-28T09:39:31;100708.81;;;18.84;82.56
41830;BME280;38614;43.472;23.936;2023-04-28T09:45:38;100687.59;;;18.58;80.88
41830;BME280;38614;43.472;23.936;2023-04-28T09:48:34;100706.03;;;17.29;81.54
41830;BME280;38614;43.472;23.936;2023-04-28T09:51:22;100676.00;;;18.23;83.24
41830;BME280;38614;43.472;23.936;2023-04-28T09:54:11;100679.63;;;18.38;81.82
41830;BME280;38614;43.472;23.936;2023-04-28T09:56:59;100694.38;;;18.17;81.77
41830;BME280;38614;43.472;23.936;2023-04-28T09:59:51;100696.31;;;17.81;85.61
41830;BME280;38614;43.472;23.936;2023-04-28T10:02:39;100697.56;;;18.98;81.17
41830;BME280;38614;43.472;23.936;2023-04-28T10:05:30;100685.03;;;19.56;73.31
41830;BME280;38614;43.472;23.936;2023-04-28T10:08:19;100690.78;;;18.88;76.21
41830;BME280;38614;43.472;23.936;2023-04-28T10:11:08;100690.03;;;18.73;73.81
41830;BME280;38614;43.472;23.936;2023-04-28T10:13:56;100676.66;;;19.45;76.64
41830;BME280;38614;43.472;23.936;2023-04-28T10:16:44;100664.72;;;17.77;76.92
41830;BME280;38614;43.472;23.936;2023-04-28T10:19:32;100674.81;;;18.53;76.53
41830;BME280;38614;43.472;23.936;2023-04-28T10:22:59;100685.13;;;19.17;75.10
41830;BME280;38614;43.472;23.936;2023-04-28T10:25:55;100673.16;;;20.04;68.61
41830;BME280;38614;43.472;23.936;2023-04-28T10:28:49;100683.13;;;19.28;69.42
41830;BME280;38614;43.472;23.936;2023-04-28T10:31:37;100659.09;;;19.27;68.74
41830;BME280;38614;43.472;23.936;2023-04-28T10:34:25;100681.94;;;19.15;64.42
41830;BME280;38614;43.472;23.936;2023-04-28T10:37:17;100681.81;;;19.50;66.91
41830;BME280;38614;43.472;23.936;2023-04-28T10:40:31;100675.84;;;17.66;69.88
41830;BME280;38614;43.472;23.936;2023-04-28T10:46:17;100654.00;;;18.86;69.24
41830;BME280;38614;43.472;23.936;2023-04-28T10:49:05;100632.84;;;18.49;65.96
41830;BME280;38614;43.472;23.936;2023-04-28T10:51:53;100652.34;;;19.10;68.72
41830;BME280;38614;43.472;23.936;2023-04-28T10:54:41;100649.00;;;19.44;59.66
41830;BME280;38614;43.472;23.936;2023-04-28T10:57:28;100643.88;;;19.24;62.15
41830;BME280;38614;43.472;23.936;2023-04-28T11:00:26;100633.22;;;18.02;68.01
41830;BME280;38614;43.472;23.936;2023-04-28T11:07:10;100645.63;;;16.96;67.23
41830;BME280;38614;43.472;23.936;2023-04-28T11:10:00;100640.44;;;18.13;71.93
41830;BME280;38614;43.472;23.936;2023-04-28T11:16:16;100612.97;;;19.46;68.77
41830;BME280;38614;43.472;23.936;2023-04-28T11:19:04;100595.59;;;19.76;60.84
41830;BME280;38614;43.472;23.936;2023-04-28T11:21:57;100597.50;;;19.93;60.62
41830;BME280;38614;43.472;23.936;2023-04-28T11:27:45;100608.97;;;19.43;59.32
41830;BME280;38614;43.472;23.936;2023-04-28T11:30:33;100604.25;;;19.26;65.13
41830;BME280;38614;43.472;23.936;2023-04-28T11:33:21;100589.81;;;19.31;63.34
41830;BME280;38614;43.472;23.936;2023-04-28T11:36:21;100606.09;;;19.54;62.09
41830;BME280;38614;43.472;23.936;2023-04-28T11:39:10;100592.91;;;19.54;61.87
41830;BME280;38614;43.472;23.936;2023-04-28T11:42:00;100595.22;;;19.70;58.07
41830;BME280;38614;43.472;23.936;2023-04-28T11:44:49;100595.50;;;19.20;58.49
41830;BME280;38614;43.472;23.936;2023-04-28T11:47:41;100582.84;;;18.69;59.77
41830;BME280;38614;43.472;23.936;2023-04-28T11:50:35;100603.69;;;19.67;58.01
41830;BME280;38614;43.472;23.936;2023-04-28T11:53:42;100591.97;;;19.79;59.07
41830;BME280;38614;43.472;23.936;2023-04-28T11:56:30;100595.88;;;20.82;63.73
41830;BME280;38614;43.472;23.936;2023-04-28T11:59:31;100602.19;;;20.55;55.46
41830;BME280;38614;43.472;23.936;2023-04-28T12:02:26;100604.44;;;19.74;58.28
41830;BME280;38614;43.472;23.936;2023-04-28T12:05:16;100597.94;;;19.11;59.37
41830;BME280;38614;43.472;23.936;2023-04-28T12:08:04;100608.47;;;18.21;58.87
41830;BME280;38614;43.472;23.936;2023-04-28T12:11:10;100597.91;;;17.29;60.34
41830;BME280;38614;43.472;23.936;2023-04-28T12:14:07;100597.22;;;17.61;61.84
41830;BME280;38614;43.472;23.936;2023-04-28T12:16:56;100588.50;;;18.19;58.97
41830;BME280;38614;43.472;23.936;2023-04-28T12:19:44;100575.72;;;18.01;59.10
41830;BME280;38614;43.472;23.936;2023-04-28T12:22:45;100580.38;;;18.93;60.57
41830;BME280;38614;43.472;23.936;2023-04-28T12:25:42;100573.91;;;19.17;58.74
41830;BME280;38614;43.472;23.936;2023-04-28T12:28:37;100550.13;;;17.84;57.75
41830;BME280;38614;43.472;23.936;2023-04-28T12:31:26;100582.38;;;17.46;58.23
41830;BME280;38614;43.472;23.936;2023-04-28T12:34:13;100566.31;;;17.04;59.50
41830;BME280;38614;43.472;23.936;2023-04-28T12:37:03;100578.81;;;17.46;58.81
41830;BME280;38614;43.472;23.936;2023-04-28T12:39:52;100558.63;;;16.83;58.85
41830;BME280;38614;43.472;23.936;2023-04-28T12:42:41;100562.84;;;17.53;61.69
41830;BME280;38614;43.472;23.936;2023-04-28T12:45:28;100542.56;;;17.92;63.96
41830;BME280;38614;43.472;23.936;2023-04-28T12:48:17;100530.09;;;17.39;63.76
41830;BME280;38614;43.472;23.936;2023-04-28T12:51:05;100530.56;;;17.84;62.09
41830;BME280;38614;43.472;23.936;2023-04-28T12:53:53;100534.56;;;18.05;62.04
41830;BME280;38614;43.472;23.936;2023-04-28T12:56:40;100533.25;;;18.70;62.29
41830;BME280;38614;43.472;23.936;2023-04-28T12:59:29;100493.78;;;18.29;61.85
41830;BME280;38614;43.472;23.936;2023-04-28T13:02:17;100537.31;;;18.33;58.02
41830;BME280;38614;43.472;23.936;2023-04-28T13:05:05;100526.50;;;18.49;57.45
41830;BME280;38614;43.472;23.936;2023-04-28T13:07:54;100511.19;;;18.93;61.18
41830;BME280;38614;43.472;23.936;2023-04-28T13:10:41;100506.44;;;18.76;60.85
41830;BME280;38614;43.472;23.936;2023-04-28T13:13:30;100532.84;;;18.61;62.35
41830;BME280;38614;43.472;23.936;2023-04-28T13:16:18;100524.44;;;18.75;61.31
41830;BME280;38614;43.472;23.936;2023-04-28T13:19:05;100523.28;;;18.65;58.16
41830;BME280;38614;43.472;23.936;2023-04-28T13:21:57;100502.53;;;18.52;57.77
41830;BME280;38614;43.472;23.936;2023-04-28T13:24:44;100517.25;;;18.81;58.71
41830;BME280;38614;43.472;23.936;2023-04-28T13:27:33;100502.38;;;18.88;60.47
41830;BME280;38614;43.472;23.936;2023-04-28T13:30:22;100510.47;;;18.64;59.02
41830;BME280;38614;43.472;23.936;2023-04-28T13:33:09;100504.13;;;18.39;59.42
41830;BME280;38614;43.472;23.936;2023-04-28T13:35:58;100495.69;;;18.64;60.40
41830;BME280;38614;43.472;23.936;2023-04-28T13:38:46;100498.09;;;18.55;59.10
41830;BME280;38614;43.472;23.936;2023-04-28T13:41:35;100493.69;;;18.57;61.04
41830;BME280;38614;43.472;23.936;2023-04-28T13:44:23;100446.91;;;18.65;60.40
41830;BME280;38614;43.472;23.936;2023-04-28T13:47:10;100495.69;;;18.67;59.16
41830;BME280;38614;43.472;23.936;2023-04-28T13:49:59;100489.28;;;18.67;59.48
41830;BME280;38614;43.472;23.936;2023-04-28T13:52:46;100478.97;;;18.35;58.12
41830;BME280;38614;43.472;23.936;2023-04-28T13:55:34;100489.78;;;18.30;57.40
41830;BME280;38614;43.472;23.936;2023-04-28T13:58:25;100481.72;;;18.49;58.39
41830;BME280;38614;43.472;23.936;2023-04-28T14:01:14;100485.84;;;17.91;60.29
41830;BME280;38614;43.472;23.936;2023-04-28T14:04:01;100481.81;;;18.03;59.41
41830;BME280;38614;43.472;23.936;2023-04-28T14:06:53;100461.88;;;17.94;58.68
41830;BME280;38614;43.472;23.936;2023-04-28T14:09:41;100446.28;;;18.00;58.60
41830;BME280;38614;43.472;23.936;2023-04-28T14:12:29;100463.03;;;18.14;57.16
41830;BME280;38614;43.472;23.936;2023-04-28T14:15:18;100457.91;;;17.70;56.98
41830;BME280;38614;43.472;23.936;2023-04-28T14:18:06;100474.25;;;17.54;57.28
41830;BME280;38614;43.472;23.936;2023-04-28T14:20:55;100465.88;;;17.89;57.00
41830;BME280;38614;43.472;23.936;2023-04-28T14:23:43;100437.13;;;17.92;60.03
41830;BME280;38614;43.472;23.936;2023-04-28T14:26:30;100467.34;;;18.47;57.71
41830;BME280;38614;43.472;23.936;2023-04-28T14:29:22;100451.09;;;17.92;55.72
41830;BME280;38614;43.472;23.936;2023-04-28T14:32:09;100454.28;;;17.91;55.73
41830;BME280;38614;43.472;23.936;2023-04-28T14:35:00;100454.69;;;17.93;56.26
41830;BME280;38614;43.472;23.936;2023-04-28T14:37:52;100454.28;;;18.02;56.92
41830;BME280;38614;43.472;23.936;2023-04-28T14:40:40;100449.09;;;17.86;54.52
41830;BME280;38614;43.472;23.936;2023-04-28T14:43:31;100441.13;;;17.52;54.13
41830;BME280;38614;43.472;23.936;2023-04-28T14:46:19;100442.28;;;17.37;55.62
41830;BME280;38614;43.472;23.936;2023-04-28T14:49:09;100442.31;;;17.69;58.08